sensor_id;sensor_type;location;lat;lon;timestamp;temperature;humidity
73509;SHT30;61750;55.036;73.312;2022-11-20T00:02:23;-16.92;81.88
73509;SHT30;61750;55.036;73.312;2022-11-20T00:04:49;-16.88;81.93
73509;SHT30;61750;55.036;73.312;2022-11-20T00:07:14;-16.92;81.68
73509;SHT30;61750;55.036;73.312;2022-11-20T00:09:40;-16.92;81.71
73509;SHT30;61750;55.036;73.312;2022-11-20T00:12:11;-16.96;81.69
73509;SHT30;61750;55.036;73.312;2022-11-20T00:14:42;-16.95;81.58
73509;SHT30;61750;55.036;73.312;2022-11-20T00:17:13;-16.99;81.54
73509;SHT30;61750;55.036;73.312;2022-11-20T00:19:48;-17.03;81.54
73509;SHT30;61750;55.036;73.312;2022-11-20T00:22:14;-17.03;81.60
73509;SHT30;61750;55.036;73.312;2022-11-20T00:24:40;-17.06;81.59
73509;SHT30;61750;55.036;73.312;2022-11-20T00:27:11;-17.08;81.69
73509;SHT30;61750;55.036;73.312;2022-11-20T00:29:42;-17.11;81.64
73509;SHT30;61750;55.036;73.312;2022-11-20T00:32:08;-17.12;81.61
73509;SHT30;61750;55.036;73.312;2022-11-20T00:34:39;-17.15;81.64
73509;SHT30;61750;55.036;73.312;2022-11-20T00:37:05;-17.16;81.74
73509;SHT30;61750;55.036;73.312;2022-11-20T00:39:39;-17.18;81.69
73509;SHT30;61750;55.036;73.312;2022-11-20T00:42:05;-17.18;81.82
73509;SHT30;61750;55.036;73.312;2022-11-20T00:44:39;-17.16;81.96
73509;SHT30;61750;55.036;73.312;2022-11-20T00:47:05;-17.15;81.97
73509;SHT30;61750;55.036;73.312;2022-11-20T00:49:40;-17.16;81.99
73509;SHT30;61750;55.036;73.312;2022-11-20T00:52:06;-17.16;81.76
73509;SHT30;61750;55.036;73.312;2022-11-20T00:54:32;-17.19;81.68
73509;SHT30;61750;55.036;73.312;2022-11-20T00:56:58;-17.19;81.77
73509;SHT30;61750;55.036;73.312;2022-11-20T00:59:39;-17.19;81.76
73509;SHT30;61750;55.036;73.312;2022-11-20T01:02:09;-17.18;81.76
73509;SHT30;61750;55.036;73.312;2022-11-20T01:04:46;-17.18;81.69
73509;SHT30;61750;55.036;73.312;2022-11-20T01:07:12;-17.18;81.79
73509;SHT30;61750;55.036;73.312;2022-11-20T01:09:39;-17.13;81.72
73509;SHT30;61750;55.036;73.312;2022-11-20T01:12:05;-17.15;81.61
73509;SHT30;61750;55.036;73.312;2022-11-20T01:14:39;-17.11;81.66
73509;SHT30;61750;55.036;73.312;2022-11-20T01:17:05;-17.11;81.46
73509;SHT30;61750;55.036;73.312;2022-11-20T01:19:39;-17.12;81.43
73509;SHT30;61750;55.036;73.312;2022-11-20T01:22:05;-17.13;81.26
73509;SHT30;61750;55.036;73.312;2022-11-20T01:24:31;-17.18;81.17
73509;SHT30;61750;55.036;73.312;2022-11-20T01:26:57;-17.16;81.23
73509;SHT30;61750;55.036;73.312;2022-11-20T01:29:39;-17.16;81.32
73509;SHT30;61750;55.036;73.312;2022-11-20T01:32:05;-17.15;81.23
73509;SHT30;61750;55.036;73.312;2022-11-20T01:34:39;-17.12;81.35
73509;SHT30;61750;55.036;73.312;2022-11-20T01:37:05;-17.02;81.21
73509;SHT30;61750;55.036;73.312;2022-11-20T01:39:39;-17.03;81.02
73509;SHT30;61750;55.036;73.312;2022-11-20T01:42:05;-17.02;80.86
73509;SHT30;61750;55.036;73.312;2022-11-20T01:44:53;-17.05;80.77
73509;SHT30;61750;55.036;73.312;2022-11-20T01:47:33;-17.03;80.73
73509;SHT30;61750;55.036;73.312;2022-11-20T01:50:42;-16.98;80.80
73509;SHT30;61750;55.036;73.312;2022-11-20T01:52:50;-16.98;80.66
73509;SHT30;61750;55.036;73.312;2022-11-20T01:55:19;-16.99;80.45
73509;SHT30;61750;55.036;73.312;2022-11-20T01:57:47;-16.99;80.39
73509;SHT30;61750;55.036;73.312;2022-11-20T02:00:15;-16.98;80.53
73509;SHT30;61750;55.036;73.312;2022-11-20T02:02:43;-16.95;80.40
73509;SHT30;61750;55.036;73.312;2022-11-20T02:05:20;-16.91;80.25
73509;SHT30;61750;55.036;73.312;2022-11-20T02:07:48;-16.93;80.02
73509;SHT30;61750;55.036;73.312;2022-11-20T02:10:14;-16.95;80.18
73509;SHT30;61750;55.036;73.312;2022-11-20T02:12:40;-16.92;80.24
73509;SHT30;61750;55.036;73.312;2022-11-20T02:15:24;-16.91;80.04
73509;SHT30;61750;55.036;73.312;2022-11-20T02:17:50;-16.89;79.85
73509;SHT30;61750;55.036;73.312;2022-11-20T02:20:16;-16.91;79.78
73509;SHT30;61750;55.036;73.312;2022-11-20T02:22:47;-16.88;79.69
73509;SHT30;61750;55.036;73.312;2022-11-20T02:25:14;-16.85;79.77
73509;SHT30;61750;55.036;73.312;2022-11-20T02:27:40;-16.85;79.67
73509;SHT30;61750;55.036;73.312;2022-11-20T02:30:06;-16.91;79.52
73509;SHT30;61750;55.036;73.312;2022-11-20T02:32:36;-16.85;79.64
73509;SHT30;61750;55.036;73.312;2022-11-20T02:35:06;-16.87;79.58
73509;SHT30;61750;55.036;73.312;2022-11-20T02:37:34;-16.87;79.47
73509;SHT30;61750;55.036;73.312;2022-11-20T02:40:01;-16.85;79.51
73509;SHT30;61750;55.036;73.312;2022-11-20T02:42:27;-16.81;79.44
73509;SHT30;61750;55.036;73.312;2022-11-20T02:44:53;-16.81;79.29
73509;SHT30;61750;55.036;73.312;2022-11-20T02:47:24;-16.82;79.31
73509;SHT30;61750;55.036;73.312;2022-11-20T02:49:50;-16.81;79.35
73509;SHT30;61750;55.036;73.312;2022-11-20T02:52:16;-16.74;79.36
73509;SHT30;61750;55.036;73.312;2022-11-20T02:54:42;-16.68;79.21
73509;SHT30;61750;55.036;73.312;2022-11-20T02:57:08;-16.68;78.99
73509;SHT30;61750;55.036;73.312;2022-11-20T02:59:39;-16.65;78.90
73509;SHT30;61750;55.036;73.312;2022-11-20T03:02:05;-16.67;78.88
73509;SHT30;61750;55.036;73.312;2022-11-20T03:04:39;-16.72;78.68
73509;SHT30;61750;55.036;73.312;2022-11-20T03:07:15;-16.72;78.80
73509;SHT30;61750;55.036;73.312;2022-11-20T03:09:45;-16.75;78.95
73509;SHT30;61750;55.036;73.312;2022-11-20T03:12:11;-16.75;79.01
73509;SHT30;61750;55.036;73.312;2022-11-20T03:14:39;-16.72;79.14
73509;SHT30;61750;55.036;73.312;2022-11-20T03:17:05;-16.72;79.04
73509;SHT30;61750;55.036;73.312;2022-11-20T03:19:39;-16.74;79.01
73509;SHT30;61750;55.036;73.312;2022-11-20T03:22:10;-16.68;79.16
73509;SHT30;61750;55.036;73.312;2022-11-20T03:24:41;-16.67;79.03
73509;SHT30;61750;55.036;73.312;2022-11-20T03:27:07;-16.62;78.90
73509;SHT30;61750;55.036;73.312;2022-11-20T03:29:39;-16.60;78.78
73509;SHT30;61750;55.036;73.312;2022-11-20T03:32:05;-16.57;78.55
73509;SHT30;61750;55.036;73.312;2022-11-20T03:34:39;-16.50;78.73
73509;SHT30;61750;55.036;73.312;2022-11-20T03:37:05;-16.45;78.22
73509;SHT30;61750;55.036;73.312;2022-11-20T03:39:39;-16.42;78.20
73509;SHT30;61750;55.036;73.312;2022-11-20T03:42:05;-16.37;78.14
73509;SHT30;61750;55.036;73.312;2022-11-20T03:44:51;-16.26;77.93
73509;SHT30;61750;55.036;73.312;2022-11-20T03:47:22;-16.23;77.74
73509;SHT30;61750;55.036;73.312;2022-11-20T03:49:48;-16.16;77.67
73509;SHT30;61750;55.036;73.312;2022-11-20T03:52:19;-16.07;77.66
73509;SHT30;61750;55.036;73.312;2022-11-20T03:54:50;-16.02;77.28
73509;SHT30;61750;55.036;73.312;2022-11-20T03:57:21;-15.89;77.18
73509;SHT30;61750;55.036;73.312;2022-11-20T03:59:47;-15.81;77.19
73509;SHT30;61750;55.036;73.312;2022-11-20T04:02:13;-15.75;76.57
73509;SHT30;61750;55.036;73.312;2022-11-20T04:04:44;-15.65;76.12
73509;SHT30;61750;55.036;73.312;2022-11-20T04:07:20;-15.58;76.06
73509;SHT30;61750;55.036;73.312;2022-11-20T04:09:56;-15.49;75.99
73509;SHT30;61750;55.036;73.312;2022-11-20T04:12:22;-15.41;75.94
73509;SHT30;61750;55.036;73.312;2022-11-20T04:14:57;-15.30;75.41
73509;SHT30;61750;55.036;73.312;2022-11-20T04:17:24;-15.26;74.15
73509;SHT30;61750;55.036;73.312;2022-11-20T04:19:50;-15.20;74.12
73509;SHT30;61750;55.036;73.312;2022-11-20T04:22:16;-15.10;74.28
73509;SHT30;61750;55.036;73.312;2022-11-20T04:24:41;-15.01;73.74
73509;SHT30;61750;55.036;73.312;2022-11-20T04:27:08;-14.89;73.16
73509;SHT30;61750;55.036;73.312;2022-11-20T04:29:39;-14.83;73.06
73509;SHT30;61750;55.036;73.312;2022-11-20T04:32:05;-14.68;73.05
73509;SHT30;61750;55.036;73.312;2022-11-20T04:34:39;-14.56;72.98
73509;SHT30;61750;55.036;73.312;2022-11-20T04:37:05;-14.51;72.46
73509;SHT30;61750;55.036;73.312;2022-11-20T04:39:39;-14.38;71.37
73509;SHT30;61750;55.036;73.312;2022-11-20T04:42:05;-14.29;71.22
73509;SHT30;61750;55.036;73.312;2022-11-20T04:44:59;-14.24;69.74
73509;SHT30;61750;55.036;73.312;2022-11-20T04:47:25;-14.10;70.48
73509;SHT30;61750;55.036;73.312;2022-11-20T04:49:51;-13.91;69.32
73509;SHT30;61750;55.036;73.312;2022-11-20T04:52:17;-13.77;69.23
73509;SHT30;61750;55.036;73.312;2022-11-20T04:54:48;-13.60;67.80
73509;SHT30;61750;55.036;73.312;2022-11-20T04:57:14;-13.47;67.45
73509;SHT30;61750;55.036;73.312;2022-11-20T04:59:40;-13.26;67.28
73509;SHT30;61750;55.036;73.312;2022-11-20T05:02:07;-13.02;66.83
73509;SHT30;61750;55.036;73.312;2022-11-20T05:04:42;-12.99;65.87
73509;SHT30;61750;55.036;73.312;2022-11-20T05:07:08;-12.89;65.79
73509;SHT30;61750;55.036;73.312;2022-11-20T05:09:39;-12.80;65.03
73509;SHT30;61750;55.036;73.312;2022-11-20T05:12:10;-12.84;64.42
73509;SHT30;61750;55.036;73.312;2022-11-20T05:14:39;-12.83;64.29
73509;SHT30;61750;55.036;73.312;2022-11-20T05:17:15;-12.81;64.00
73509;SHT30;61750;55.036;73.312;2022-11-20T05:19:50;-12.78;64.43
73509;SHT30;61750;55.036;73.312;2022-11-20T05:22:16;-12.80;63.93
73509;SHT30;61750;55.036;73.312;2022-11-20T05:24:52;-12.84;64.17
73509;SHT30;61750;55.036;73.312;2022-11-20T05:27:18;-12.94;63.95
73509;SHT30;61750;55.036;73.312;2022-11-20T05:29:48;-12.95;63.38
73509;SHT30;61750;55.036;73.312;2022-11-20T05:32:24;-12.91;63.57
73509;SHT30;61750;55.036;73.312;2022-11-20T05:34:51;-12.95;63.44
73509;SHT30;61750;55.036;73.312;2022-11-20T05:37:17;-12.75;62.94
73509;SHT30;61750;55.036;73.312;2022-11-20T05:39:43;-12.60;63.16
73509;SHT30;61750;55.036;73.312;2022-11-20T05:42:15;-12.54;61.68
73509;SHT30;61750;55.036;73.312;2022-11-20T05:45:02;-12.49;61.64
73509;SHT30;61750;55.036;73.312;2022-11-20T05:47:33;-12.42;61.90
73509;SHT30;61750;55.036;73.312;2022-11-20T05:50:09;-12.25;61.61
73509;SHT30;61750;55.036;73.312;2022-11-20T05:52:35;-12.20;61.43
73509;SHT30;61750;55.036;73.312;2022-11-20T05:55:07;-12.20;60.89
73509;SHT30;61750;55.036;73.312;2022-11-20T05:57:37;-12.10;61.44
73509;SHT30;61750;55.036;73.312;2022-11-20T06:00:13;-12.00;61.43
73509;SHT30;61750;55.036;73.312;2022-11-20T06:02:46;-12.05;59.97
73509;SHT30;61750;55.036;73.312;2022-11-20T06:05:17;-12.03;59.80
73509;SHT30;61750;55.036;73.312;2022-11-20T06:07:43;-11.92;60.22
73509;SHT30;61750;55.036;73.312;2022-11-20T06:10:09;-11.81;60.55
73509;SHT30;61750;55.036;73.312;2022-11-20T06:12:45;-11.75;59.25
73509;SHT30;61750;55.036;73.312;2022-11-20T06:15:16;-11.68;59.85
73509;SHT30;61750;55.036;73.312;2022-11-20T06:17:51;-11.61;60.02
73509;SHT30;61750;55.036;73.312;2022-11-20T06:23:43;-11.59;60.58
73509;SHT30;61750;55.036;73.312;2022-11-20T06:26:10;-11.55;61.21
73509;SHT30;61750;55.036;73.312;2022-11-20T06:33:04;-11.54;61.42
73509;SHT30;61750;55.036;73.312;2022-11-20T06:35:35;-11.50;61.76
73509;SHT30;61750;55.036;73.312;2022-11-20T06:38:06;-11.37;62.19
73509;SHT30;61750;55.036;73.312;2022-11-20T06:40:36;-11.23;61.75
73509;SHT30;61750;55.036;73.312;2022-11-20T06:43:15;-11.23;61.77
73509;SHT30;61750;55.036;73.312;2022-11-20T06:45:41;-11.20;62.03
73509;SHT30;61750;55.036;73.312;2022-11-20T06:48:07;-11.10;61.74
73509;SHT30;61750;55.036;73.312;2022-11-20T06:50:43;-11.00;62.23
73509;SHT30;61750;55.036;73.312;2022-11-20T06:53:19;-11.00;61.67
73509;SHT30;61750;55.036;73.312;2022-11-20T06:55:50;-10.95;61.88
73509;SHT30;61750;55.036;73.312;2022-11-20T07:02:35;-10.96;61.83
73509;SHT30;61750;55.036;73.312;2022-11-20T07:05:01;-10.90;61.87
73509;SHT30;61750;55.036;73.312;2022-11-20T07:07:27;-10.80;61.81
73509;SHT30;61750;55.036;73.312;2022-11-20T07:09:53;-10.60;61.84
73509;SHT30;61750;55.036;73.312;2022-11-20T07:12:23;-10.42;61.31
73509;SHT30;61750;55.036;73.312;2022-11-20T07:14:54;-10.32;61.04
73509;SHT30;61750;55.036;73.312;2022-11-20T07:17:30;-10.07;60.93
73509;SHT30;61750;55.036;73.312;2022-11-20T07:19:56;-9.93;60.28
73509;SHT30;61750;55.036;73.312;2022-11-20T07:22:25;-9.91;59.94
73509;SHT30;61750;55.036;73.312;2022-11-20T07:25:02;-9.83;60.74
73509;SHT30;61750;55.036;73.312;2022-11-20T07:27:28;-9.71;60.41
73509;SHT30;61750;55.036;73.312;2022-11-20T07:30:04;-9.84;60.02
73509;SHT30;61750;55.036;73.312;2022-11-20T07:32:31;-9.90;60.78
73509;SHT30;61750;55.036;73.312;2022-11-20T07:34:57;-9.85;60.72
73509;SHT30;61750;55.036;73.312;2022-11-20T07:37:36;-9.87;60.92
73509;SHT30;61750;55.036;73.312;2022-11-20T07:40:12;-9.77;61.17
73509;SHT30;61750;55.036;73.312;2022-11-20T07:42:37;-9.57;61.60
73509;SHT30;61750;55.036;73.312;2022-11-20T07:45:03;-9.84;60.36
73509;SHT30;61750;55.036;73.312;2022-11-20T07:47:35;-10.04;61.73
73509;SHT30;61750;55.036;73.312;2022-11-20T07:50:01;-9.93;62.00
73509;SHT30;61750;55.036;73.312;2022-11-20T07:52:26;-9.78;61.86
73509;SHT30;61750;55.036;73.312;2022-11-20T07:54:52;-9.91;61.69
73509;SHT30;61750;55.036;73.312;2022-11-20T07:57:18;-9.87;60.97
73509;SHT30;61750;55.036;73.312;2022-11-20T07:59:44;-9.78;61.43
73509;SHT30;61750;55.036;73.312;2022-11-20T08:02:22;-9.87;61.30
73509;SHT30;61750;55.036;73.312;2022-11-20T08:04:57;-10.00;60.75
73509;SHT30;61750;55.036;73.312;2022-11-20T08:07:28;-9.90;60.57
73509;SHT30;61750;55.036;73.312;2022-11-20T08:10:05;-9.78;60.15
73509;SHT30;61750;55.036;73.312;2022-11-20T08:12:42;-9.81;59.80
73509;SHT30;61750;55.036;73.312;2022-11-20T08:15:26;-9.46;59.41
73509;SHT30;61750;55.036;73.312;2022-11-20T08:17:58;-9.05;58.28
73509;SHT30;61750;55.036;73.312;2022-11-20T08:20:34;-8.92;56.60
73509;SHT30;61750;55.036;73.312;2022-11-20T08:23:01;-9.05;56.24
73509;SHT30;61750;55.036;73.312;2022-11-20T08:25:35;-9.26;56.25
73509;SHT30;61750;55.036;73.312;2022-11-20T08:28:06;-9.33;57.49
73509;SHT30;61750;55.036;73.312;2022-11-20T08:30:32;-9.38;57.42
73509;SHT30;61750;55.036;73.312;2022-11-20T08:33:02;-9.35;59.06
73509;SHT30;61750;55.036;73.312;2022-11-20T08:35:32;-9.61;58.02
73509;SHT30;61750;55.036;73.312;2022-11-20T08:37:58;-9.81;58.35
73509;SHT30;61750;55.036;73.312;2022-11-20T08:40:33;-9.81;59.31
73509;SHT30;61750;55.036;73.312;2022-11-20T08:42:59;-8.84;57.50
73509;SHT30;61750;55.036;73.312;2022-11-20T08:45:32;-8.21;55.11
73509;SHT30;61750;55.036;73.312;2022-11-20T08:48:01;-7.82;52.16
73509;SHT30;61750;55.036;73.312;2022-11-20T08:50:28;-7.31;51.85
73509;SHT30;61750;55.036;73.312;2022-11-20T08:52:54;-8.13;51.85
73509;SHT30;61750;55.036;73.312;2022-11-20T08:55:20;-8.74;54.38
73509;SHT30;61750;55.036;73.312;2022-11-20T08:57:46;-8.68;53.52
73509;SHT30;61750;55.036;73.312;2022-11-20T09:00:12;-7.92;52.28
73509;SHT30;61750;55.036;73.312;2022-11-20T09:02:38;-7.72;50.74
73509;SHT30;61750;55.036;73.312;2022-11-20T09:05:05;-7.44;50.75
73509;SHT30;61750;55.036;73.312;2022-11-20T09:07:31;-7.32;51.36
73509;SHT30;61750;55.036;73.312;2022-11-20T09:09:56;-7.63;50.74
73509;SHT30;61750;55.036;73.312;2022-11-20T09:12:27;-7.60;51.85
73509;SHT30;61750;55.036;73.312;2022-11-20T09:15:04;-7.44;51.07
73509;SHT30;61750;55.036;73.312;2022-11-20T09:17:30;-7.74;51.25
73509;SHT30;61750;55.036;73.312;2022-11-20T09:19:55;-8.24;52.02
73509;SHT30;61750;55.036;73.312;2022-11-20T09:22:21;-8.75;53.06
73509;SHT30;61750;55.036;73.312;2022-11-20T09:24:47;-8.98;55.03
73509;SHT30;61750;55.036;73.312;2022-11-20T09:27:14;-9.15;55.44
73509;SHT30;61750;55.036;73.312;2022-11-20T09:29:40;-9.32;55.47
73509;SHT30;61750;55.036;73.312;2022-11-20T09:32:12;-9.47;56.39
73509;SHT30;61750;55.036;73.312;2022-11-20T09:34:42;-9.66;57.23
73509;SHT30;61750;55.036;73.312;2022-11-20T09:37:09;-9.60;57.80
73509;SHT30;61750;55.036;73.312;2022-11-20T09:39:39;-9.78;57.13
73509;SHT30;61750;55.036;73.312;2022-11-20T09:42:10;-9.84;58.36
73509;SHT30;61750;55.036;73.312;2022-11-20T09:44:49;-10.03;58.18
73509;SHT30;61750;55.036;73.312;2022-11-20T09:50:20;-10.22;59.36
73509;SHT30;61750;55.036;73.312;2022-11-20T09:53:35;-10.29;59.42
73509;SHT30;61750;55.036;73.312;2022-11-20T09:55:35;-10.35;59.58
73509;SHT30;61750;55.036;73.312;2022-11-20T09:58:07;-10.48;59.94
73509;SHT30;61750;55.036;73.312;2022-11-20T10:00:36;-10.42;61.74
73509;SHT30;61750;55.036;73.312;2022-11-20T10:03:04;-10.55;61.32
73509;SHT30;61750;55.036;73.312;2022-11-20T10:05:33;-10.55;61.64
73509;SHT30;61750;55.036;73.312;2022-11-20T10:10:38;-10.59;61.86
73509;SHT30;61750;55.036;73.312;2022-11-20T10:13:22;-10.70;61.63
73509;SHT30;61750;55.036;73.312;2022-11-20T10:18:22;-10.89;62.72
73509;SHT30;61750;55.036;73.312;2022-11-20T10:26:13;-10.91;64.95
73509;SHT30;61750;55.036;73.312;2022-11-20T10:33:17;-11.11;65.69
73509;SHT30;61750;55.036;73.312;2022-11-20T10:36:07;-11.14;65.68
73509;SHT30;61750;55.036;73.312;2022-11-20T10:38:35;-11.14;66.51
73509;SHT30;61750;55.036;73.312;2022-11-20T10:41:02;-11.21;66.09
73509;SHT30;61750;55.036;73.312;2022-11-20T10:44:14;-11.20;66.71
73509;SHT30;61750;55.036;73.312;2022-11-20T10:46:43;-11.26;66.65
73509;SHT30;61750;55.036;73.312;2022-11-20T11:03:28;-11.30;66.51
73509;SHT30;61750;55.036;73.312;2022-11-20T11:08:40;-11.38;66.45
73509;SHT30;61750;55.036;73.312;2022-11-20T11:13:47;-11.43;66.30
73509;SHT30;61750;55.036;73.312;2022-11-20T11:16:24;-11.47;66.53
73509;SHT30;61750;55.036;73.312;2022-11-20T11:23:11;-11.45;66.50
73509;SHT30;61750;55.036;73.312;2022-11-20T11:25:56;-11.43;67.08
73509;SHT30;61750;55.036;73.312;2022-11-20T11:28:22;-11.43;66.85
73509;SHT30;61750;55.036;73.312;2022-11-20T11:30:51;-11.41;66.57
73509;SHT30;61750;55.036;73.312;2022-11-20T11:33:21;-11.37;67.03
73509;SHT30;61750;55.036;73.312;2022-11-20T11:36:04;-11.35;66.45
73509;SHT30;61750;55.036;73.312;2022-11-20T11:43:05;-11.45;66.07
73509;SHT30;61750;55.036;73.312;2022-11-20T11:46:02;-11.44;66.00
73509;SHT30;61750;55.036;73.312;2022-11-20T12:00:49;-11.38;66.19
73509;SHT30;61750;55.036;73.312;2022-11-20T12:03:38;-11.41;65.77
73509;SHT30;61750;55.036;73.312;2022-11-20T12:06:15;-11.40;66.10
73509;SHT30;61750;55.036;73.312;2022-11-20T12:15:45;-11.38;65.61
73509;SHT30;61750;55.036;73.312;2022-11-20T12:18:18;-11.35;66.08
73509;SHT30;61750;55.036;73.312;2022-11-20T12:20:49;-11.34;65.96
73509;SHT30;61750;55.036;73.312;2022-11-20T12:26:21;-11.31;67.20
73509;SHT30;61750;55.036;73.312;2022-11-20T12:35:54;-11.38;67.19
73509;SHT30;61750;55.036;73.312;2022-11-20T12:49:46;-11.40;66.60
73509;SHT30;61750;55.036;73.312;2022-11-20T12:52:16;-11.38;66.48
73509;SHT30;61750;55.036;73.312;2022-11-20T12:54:53;-11.34;65.99
73509;SHT30;61750;55.036;73.312;2022-11-20T13:00:02;-11.40;65.91
73509;SHT30;61750;55.036;73.312;2022-11-20T13:07:38;-11.51;66.48
73509;SHT30;61750;55.036;73.312;2022-11-20T13:10:04;-11.52;66.49
73509;SHT30;61750;55.036;73.312;2022-11-20T13:12:36;-11.55;66.34
73509;SHT30;61750;55.036;73.312;2022-11-20T13:17:51;-11.59;66.57
73509;SHT30;61750;55.036;73.312;2022-11-20T13:20:19;-11.64;66.70
73509;SHT30;61750;55.036;73.312;2022-11-20T13:22:47;-11.62;66.71
73509;SHT30;61750;55.036;73.312;2022-11-20T13:25:23;-11.65;67.06
73509;SHT30;61750;55.036;73.312;2022-11-20T13:27:55;-11.67;66.75
73509;SHT30;61750;55.036;73.312;2022-11-20T13:30:22;-11.67;67.24
73509;SHT30;61750;55.036;73.312;2022-11-20T13:32:50;-11.75;66.82
73509;SHT30;61750;55.036;73.312;2022-11-20T13:35:29;-11.75;67.05
73509;SHT30;61750;55.036;73.312;2022-11-20T13:38:01;-11.81;67.37
73509;SHT30;61750;55.036;73.312;2022-11-20T13:40:27;-11.81;67.63
73509;SHT30;61750;55.036;73.312;2022-11-20T13:45:27;-11.90;67.44
73509;SHT30;61750;55.036;73.312;2022-11-20T13:47:53;-11.90;67.90
73509;SHT30;61750;55.036;73.312;2022-11-20T13:50:44;-11.90;68.07
73509;SHT30;61750;55.036;73.312;2022-11-20T13:53:14;-11.93;68.07
73509;SHT30;61750;55.036;73.312;2022-11-20T13:55:59;-11.96;68.18
73509;SHT30;61750;55.036;73.312;2022-11-20T13:58:29;-12.05;67.77
73509;SHT30;61750;55.036;73.312;2022-11-20T14:01:00;-12.08;68.16
73509;SHT30;61750;55.036;73.312;2022-11-20T14:03:31;-12.09;68.27
73509;SHT30;61750;55.036;73.312;2022-11-20T14:06:02;-12.16;67.42
73509;SHT30;61750;55.036;73.312;2022-11-20T14:12:47;-12.30;68.09
73509;SHT30;61750;55.036;73.312;2022-11-20T14:15:27;-12.32;68.17
73509;SHT30;61750;55.036;73.312;2022-11-20T14:18:11;-12.36;68.54
73509;SHT30;61750;55.036;73.312;2022-11-20T14:20:47;-12.47;68.62
73509;SHT30;61750;55.036;73.312;2022-11-20T14:23:22;-12.54;68.83
73509;SHT30;61750;55.036;73.312;2022-11-20T14:25:48;-12.63;68.76
73509;SHT30;61750;55.036;73.312;2022-11-20T14:28:32;-12.68;69.41
73509;SHT30;61750;55.036;73.312;2022-11-20T14:31:15;-12.73;69.81
73509;SHT30;61750;55.036;73.312;2022-11-20T14:33:44;-12.75;70.08
73509;SHT30;61750;55.036;73.312;2022-11-20T14:36:16;-12.81;69.55
73509;SHT30;61750;55.036;73.312;2022-11-20T14:43:04;-12.98;70.42
73509;SHT30;61750;55.036;73.312;2022-11-20T14:45:41;-13.01;70.19
73509;SHT30;61750;55.036;73.312;2022-11-20T14:48:08;-13.08;70.36
73509;SHT30;61750;55.036;73.312;2022-11-20T14:50:40;-13.14;70.59
73509;SHT30;61750;55.036;73.312;2022-11-20T14:53:06;-13.20;70.63
73509;SHT30;61750;55.036;73.312;2022-11-20T14:55:32;-13.26;70.69
73509;SHT30;61750;55.036;73.312;2022-11-20T14:58:05;-13.32;71.13
73509;SHT30;61750;55.036;73.312;2022-11-20T15:00:32;-13.30;71.19
73509;SHT30;61750;55.036;73.312;2022-11-20T15:03:14;-13.32;70.98
73509;SHT30;61750;55.036;73.312;2022-11-20T15:05:45;-13.35;71.16
73509;SHT30;61750;55.036;73.312;2022-11-20T15:08:12;-13.32;71.24
73509;SHT30;61750;55.036;73.312;2022-11-20T15:10:38;-13.36;71.00
73509;SHT30;61750;55.036;73.312;2022-11-20T15:13:11;-13.38;71.42
73509;SHT30;61750;55.036;73.312;2022-11-20T15:15:48;-13.38;71.40
73509;SHT30;61750;55.036;73.312;2022-11-20T15:18:18;-13.38;71.35
73509;SHT30;61750;55.036;73.312;2022-11-20T15:20:50;-13.42;71.38
73509;SHT30;61750;55.036;73.312;2022-11-20T15:23:17;-13.46;71.58
73509;SHT30;61750;55.036;73.312;2022-11-20T15:25:49;-13.47;71.74
73509;SHT30;61750;55.036;73.312;2022-11-20T15:28:29;-13.47;72.12
73509;SHT30;61750;55.036;73.312;2022-11-20T15:31:01;-13.54;72.20
73509;SHT30;61750;55.036;73.312;2022-11-20T15:33:33;-13.62;72.20
73509;SHT30;61750;55.036;73.312;2022-11-20T15:36:02;-13.69;72.32
73509;SHT30;61750;55.036;73.312;2022-11-20T15:38:33;-13.70;72.54
73509;SHT30;61750;55.036;73.312;2022-11-20T15:40:59;-13.77;72.63
73509;SHT30;61750;55.036;73.312;2022-11-20T15:43:25;-13.83;72.63
73509;SHT30;61750;55.036;73.312;2022-11-20T15:45:53;-13.86;72.91
73509;SHT30;61750;55.036;73.312;2022-11-20T15:48:20;-13.93;72.98
73509;SHT30;61750;55.036;73.312;2022-11-20T15:50:58;-13.98;73.12
73509;SHT30;61750;55.036;73.312;2022-11-20T15:53:35;-13.98;73.27
73509;SHT30;61750;55.036;73.312;2022-11-20T15:56:01;-14.06;73.40
73509;SHT30;61750;55.036;73.312;2022-11-20T15:58:27;-14.10;73.64
73509;SHT30;61750;55.036;73.312;2022-11-20T16:01:03;-14.13;73.72
73509;SHT30;61750;55.036;73.312;2022-11-20T16:03:29;-14.18;73.98
73509;SHT30;61750;55.036;73.312;2022-11-20T16:05:55;-14.22;74.26
73509;SHT30;61750;55.036;73.312;2022-11-20T16:08:27;-14.24;74.46
73509;SHT30;61750;55.036;73.312;2022-11-20T16:10:52;-14.27;74.70
73509;SHT30;61750;55.036;73.312;2022-11-20T16:13:18;-14.28;74.86
73509;SHT30;61750;55.036;73.312;2022-11-20T16:16:04;-14.34;75.10
73509;SHT30;61750;55.036;73.312;2022-11-20T16:18:40;-14.35;75.39
73509;SHT30;61750;55.036;73.312;2022-11-20T16:21:10;-14.39;75.32
73509;SHT30;61750;55.036;73.312;2022-11-20T16:23:46;-14.37;75.59
73509;SHT30;61750;55.036;73.312;2022-11-20T16:26:13;-14.42;75.68
73509;SHT30;61750;55.036;73.312;2022-11-20T16:28:39;-14.39;75.73
73509;SHT30;61750;55.036;73.312;2022-11-20T16:31:09;-14.45;75.69
73509;SHT30;61750;55.036;73.312;2022-11-20T16:33:41;-14.46;75.75
73509;SHT30;61750;55.036;73.312;2022-11-20T16:36:13;-14.48;75.84
73509;SHT30;61750;55.036;73.312;2022-11-20T16:43:09;-14.49;76.02
73509;SHT30;61750;55.036;73.312;2022-11-20T16:45:46;-14.49;76.11
73509;SHT30;61750;55.036;73.312;2022-11-20T16:48:13;-14.45;76.03
73509;SHT30;61750;55.036;73.312;2022-11-20T16:50:46;-14.41;75.91
73509;SHT30;61750;55.036;73.312;2022-11-20T16:53:13;-14.38;75.97
73509;SHT30;61750;55.036;73.312;2022-11-20T16:55:56;-14.28;75.87
73509;SHT30;61750;55.036;73.312;2022-11-20T16:58:31;-14.18;75.59
73509;SHT30;61750;55.036;73.312;2022-11-20T17:01:03;-14.13;75.44
73509;SHT30;61750;55.036;73.312;2022-11-20T17:03:29;-14.11;75.46
73509;SHT30;61750;55.036;73.312;2022-11-20T17:06:01;-14.06;75.47
73509;SHT30;61750;55.036;73.312;2022-11-20T17:08:27;-14.01;75.24
73509;SHT30;61750;55.036;73.312;2022-11-20T17:11:08;-13.93;75.08
73509;SHT30;61750;55.036;73.312;2022-11-20T17:13:35;-13.95;74.77
73509;SHT30;61750;55.036;73.312;2022-11-20T17:16:02;-13.91;74.84
73509;SHT30;61750;55.036;73.312;2022-11-20T17:18:28;-13.94;74.83
73509;SHT30;61750;55.036;73.312;2022-11-20T17:20:54;-13.86;75.12
73509;SHT30;61750;55.036;73.312;2022-11-20T17:23:28;-13.80;74.96
73509;SHT30;61750;55.036;73.312;2022-11-20T17:26:05;-13.80;74.40
73509;SHT30;61750;55.036;73.312;2022-11-20T17:28:42;-13.84;74.67
73509;SHT30;61750;55.036;73.312;2022-11-20T17:31:16;-13.74;75.18
73509;SHT30;61750;55.036;73.312;2022-11-20T17:33:43;-13.64;74.88